Time;durP1;ratioP1;P1;durP2;ratioP2;P2;SDS_P1;SDS_P2;PMS_P1;PMS_P2;Temp;Humidity;BMP_temperature;BMP_pressure;BME280_temperature;BME280_humidity;BME280_pressure;Samples;Min_cycle;Max_cycle;Signal;HPM_P1;HPM_P2
2023/08/25 00:01:16;;;;;;;9.75;5.18;;;;;;;;;;4968813;28;94878;-86
2023/08/25 00:03:43;;;;;;;10.32;4.80;;;;;;;;;;4989876;28;93240;-86
2023/08/25 00:06:10;;;;;;;7.95;3.83;;;;;;;;;;4971976;28;92784;-86
2023/08/25 00:08:37;;;;;;;10.65;5.50;;;;;;;;;;4981092;28;94261;-87
2023/08/25 00:11:03;;;;;;;;;;;;;;;;;;4973576;28;92488;-87
2023/08/25 00:13:30;;;;;;;11.10;5.05;;;;;;;;;;4992198;28;101768;-87
2023/08/25 00:15:56;;;;;;;7.65;3.90;;;;;;;;;;4987483;28;93109;-87
2023/08/25 00:18:23;;;;;;;12.80;4.95;;;;;;;;;;4979099;28;92072;-87
2023/08/25 00:20:50;;;;;;;10.48;5.78;;;;;;;;;;4989038;28;93796;-86
2023/08/25 00:23:16;;;;;;;12.27;4.55;;;;;;;;;;5009515;28;92408;-86
2023/08/25 00:25:44;;;;;;;12.18;7.10;;;;;;;;;;5006378;28;94666;-86
2023/08/25 00:28:11;;;;;;;9.05;4.95;;;;;;;;;;4975199;28;94165;-88
2023/08/25 00:30:39;;;;;;;11.52;5.35;;;;;;;;;;4994517;28;92296;-86
2023/08/25 00:33:06;;;;;;;9.93;5.20;;;;;;;;;;5009350;28;92936;-86
2023/08/25 00:35:32;;;;;;;13.50;6.07;;;;;;;;;;4999784;28;93464;-85
2023/08/25 00:37:59;;;;;;;14.32;7.00;;;;;;;;;;4993612;28;92432;-85
2023/08/25 00:40:26;;;;;;;13.30;6.07;;;;;;;;;;4995996;28;92679;-86
2023/08/25 00:42:52;;;;;;;12.00;5.93;;;;;;;;;;4994031;28;91896;-85
2023/08/25 00:45:19;;;;;;;12.73;8.00;;;;;;;;;;4992201;28;92471;-85
2023/08/25 00:47:46;;;;;;;11.75;5.85;;;;;;;;;;4992463;28;93027;-85
2023/08/25 00:50:14;;;;;;;10.68;5.22;;;;;;;;;;4997047;28;95498;-86
2023/08/25 00:52:40;;;;;;;9.95;5.35;;;;;;;;;;4993557;28;97105;-86
2023/08/25 00:55:08;;;;;;;10.57;5.05;;;;;;;;;;5011916;28;93577;-86
2023/08/25 00:57:34;;;;;;;;;;;;;;;;;;5018486;28;91556;-86
2023/08/25 01:00:01;;;;;;;9.15;4.78;;;;;;;;;;4978352;28;106840;-86
2023/08/25 01:02:28;;;;;;;8.90;4.63;;;;;;;;;;4979159;28;93244;-87
2023/08/25 01:04:56;;;;;;;11.80;7.35;;;;;;;;;;4958982;28;94967;-87
2023/08/25 01:07:24;;;;;;;12.18;6.38;;;;;;;;;;4979702;28;92197;-87
2023/08/25 01:09:51;;;;;;;11.30;5.90;;;;;;;;;;4993700;28;92744;-86
2023/08/25 01:12:28;;;;;;;10.80;6.75;;;;;;;;;;4959018;28;95867;-87
2023/08/25 01:15:02;;;;;;;10.52;6.03;;;;;;;;;;4990386;28;95552;-87
2023/08/25 01:17:36;;;;;;;10.65;5.22;;;;;;;;;;4993085;28;92661;-87
2023/08/25 01:20:06;;;;;;;9.13;4.50;;;;;;;;;;4993224;28;92859;-87
2023/08/25 01:22:39;;;;;;;12.45;6.97;;;;;;;;;;4974356;28;95778;-87
2023/08/25 01:25:25;;;;;;;11.95;6.20;;;;;;;;;;4996051;28;92537;-87
2023/08/25 01:27:52;;;;;;;15.25;10.02;;;;;;;;;;4988327;28;93659;-85
2023/08/25 01:30:21;;;;;;;13.27;7.22;;;;;;;;;;4973954;28;92873;-87
2023/08/25 01:32:47;;;;;;;16.55;7.05;;;;;;;;;;4992046;28;92804;-85
2023/08/25 01:35:15;;;;;;;15.10;8.00;;;;;;;;;;4991929;28;92475;-85
2023/08/25 01:37:53;;;;;;;11.50;6.85;;;;;;;;;;4977160;28;92613;-85
2023/08/25 01:40:22;;;;;;;13.95;8.52;;;;;;;;;;4977048;28;96013;-87
2023/08/25 01:42:50;;;;;;;13.60;7.40;;;;;;;;;;4981022;28;96781;-87
2023/08/25 01:45:17;;;;;;;11.48;7.05;;;;;;;;;;4982238;28;93505;-86
2023/08/25 01:47:45;;;;;;;14.27;7.93;;;;;;;;;;4991172;28;93201;-86
2023/08/25 01:50:12;;;;;;;11.73;6.57;;;;;;;;;;4985219;28;92949;-86
2023/08/25 01:52:39;;;;;;;14.20;8.85;;;;;;;;;;4988824;28;93962;-87
2023/08/25 01:55:06;;;;;;;12.18;6.47;;;;;;;;;;4962990;28;96277;-87
2023/08/25 01:57:32;;;;;;;14.98;7.57;;;;;;;;;;4999020;28;91968;-86
2023/08/25 02:00:00;;;;;;;12.20;7.13;;;;;;;;;;4988595;28;94739;-87
2023/08/25 02:02:26;;;;;;;18.55;10.02;;;;;;;;;;4980964;28;92461;-88
2023/08/25 02:04:54;;;;;;;18.45;10.50;;;;;;;;;;4987124;28;94937;-87
2023/08/25 02:07:23;;;;;;;14.63;9.25;;;;;;;;;;4985358;28;96027;-88
2023/08/25 02:09:53;;;;;;;15.40;9.50;;;;;;;;;;4969773;28;92786;-88
2023/08/25 02:12:21;;;;;;;12.20;6.93;;;;;;;;;;4977436;28;92846;-88
2023/08/25 02:14:48;;;;;;;10.77;6.28;;;;;;;;;;4974303;28;94164;-88
2023/08/25 02:17:14;;;;;;;13.05;6.97;;;;;;;;;;4992494;28;92403;-87
2023/08/25 02:19:41;;;;;;;14.40;9.55;;;;;;;;;;4991235;28;92854;-86
2023/08/25 02:22:10;;;;;;;20.48;13.50;;;;;;;;;;4964595;28;93815;-86
2023/08/25 02:24:37;;;;;;;14.38;8.15;;;;;;;;;;4981652;28;92925;-85
2023/08/25 02:27:04;;;;;;;14.60;9.30;;;;;;;;;;4980454;28;93108;-86
2023/08/25 02:29:31;;;;;;;11.60;6.82;;;;;;;;;;4982339;28;98070;-83
2023/08/25 02:31:58;;;;;;;10.93;6.55;;;;;;;;;;4976495;28;97311;-86
2023/08/25 02:34:28;;;;;;;13.18;7.38;;;;;;;;;;4990436;28;93105;-85
2023/08/25 02:36:54;;;;;;;12.40;6.88;;;;;;;;;;4972767;28;93105;-85
2023/08/25 02:39:21;;;;;;;13.52;7.80;;;;;;;;;;4992151;28;92838;-86
2023/08/25 02:41:47;;;;;;;14.65;8.55;;;;;;;;;;4979096;28;95761;-85
2023/08/25 02:44:14;;;;;;;13.05;6.50;;;;;;;;;;4985246;28;92515;-85
2023/08/25 02:46:42;;;;;;;14.70;9.57;;;;;;;;;;4974003;28;95658;-85
2023/08/25 02:49:08;;;;;;;14.68;8.52;;;;;;;;;;4995946;28;93670;-85
2023/08/25 02:51:35;;;;;;;14.93;8.05;;;;;;;;;;4988539;28;92114;-86
2023/08/25 02:54:02;;;;;;;10.10;6.15;;;;;;;;;;4981746;28;97140;-85
2023/08/25 02:56:28;;;;;;;11.10;6.28;;;;;;;;;;4976524;28;92490;-86
2023/08/25 02:58:55;;;;;;;10.10;5.47;;;;;;;;;;4990618;28;94020;-86
2023/08/25 03:01:22;;;;;;;10.10;5.53;;;;;;;;;;4974220;28;96356;-86
2023/08/25 03:03:48;;;;;;;11.07;5.53;;;;;;;;;;4971729;28;93194;-86
2023/08/25 03:06:15;;;;;;;9.77;5.18;;;;;;;;;;4983202;28;95753;-86
2023/08/25 03:08:42;;;;;;;9.05;4.72;;;;;;;;;;4990152;28;93133;-85
2023/08/25 03:11:09;;;;;;;9.82;4.82;;;;;;;;;;4974811;28;92822;-85
2023/08/25 03:13:35;;;;;;;10.13;5.13;;;;;;;;;;4979365;28;94979;-85
2023/08/25 03:16:02;;;;;;;11.85;6.63;;;;;;;;;;4990377;28;92988;-86
2023/08/25 03:18:30;;;;;;;10.65;6.15;;;;;;;;;;4970904;28;95728;-86
2023/08/25 03:20:56;;;;;;;13.10;7.78;;;;;;;;;;4985002;28;95536;-86
2023/08/25 03:23:23;;;;;;;11.45;6.22;;;;;;;;;;4964648;28;92528;-85
2023/08/25 03:25:50;;;;;;;11.05;5.93;;;;;;;;;;4974493;28;95797;-84
2023/08/25 03:28:16;;;;;;;10.93;6.57;;;;;;;;;;4989677;28;92974;-85
2023/08/25 03:30:43;;;;;;;12.15;6.50;;;;;;;;;;4975164;28;92491;-85
2023/08/25 03:33:10;;;;;;;13.85;6.32;;;;;;;;;;4984725;28;92904;-86
2023/08/25 03:35:38;;;;;;;10.93;5.78;;;;;;;;;;4973848;28;94019;-86
2023/08/25 03:38:08;;;;;;;9.77;5.63;;;;;;;;;;4958899;28;95000;-86
2023/08/25 03:40:34;;;;;;;14.95;9.48;;;;;;;;;;4975876;28;96205;-85
2023/08/25 03:43:01;;;;;;;10.70;6.55;;;;;;;;;;4977514;28;94808;-86
2023/08/25 03:45:28;;;;;;;10.13;6.45;;;;;;;;;;4990670;28;94134;-85
2023/08/25 03:47:56;;;;;;;12.48;6.90;;;;;;;;;;4989235;28;92905;-86
2023/08/25 03:50:24;;;;;;;12.35;7.28;;;;;;;;;;4998927;28;92355;-86
2023/08/25 03:52:52;;;;;;;13.63;6.43;;;;;;;;;;5001092;28;94679;-86
2023/08/25 03:55:19;;;;;;;11.88;6.43;;;;;;;;;;4988123;28;94532;-86
2023/08/25 03:57:48;;;;;;;17.08;11.43;;;;;;;;;;4991213;28;94615;-86
2023/08/25 04:00:14;;;;;;;15.18;10.18;;;;;;;;;;4991622;28;95218;-86
2023/08/25 04:02:41;;;;;;;19.50;12.57;;;;;;;;;;5005484;28;92466;-88
2023/08/25 04:05:08;;;;;;;20.63;13.25;;;;;;;;;;5003055;28;92686;-86
2023/08/25 04:07:35;;;;;;;19.98;13.52;;;;;;;;;;5003301;28;94809;-87
2023/08/25 04:10:03;;;;;;;14.48;8.88;;;;;;;;;;4986873;28;92494;-86
2023/08/25 04:12:29;;;;;;;12.38;6.80;;;;;;;;;;4993336;28;92817;-86
2023/08/25 04:14:56;;;;;;;12.73;6.90;;;;;;;;;;4983401;28;94344;-86
2023/08/25 04:17:22;;;;;;;11.00;5.95;;;;;;;;;;4983535;28;92510;-88
2023/08/25 04:19:49;;;;;;;11.75;6.82;;;;;;;;;;4983591;28;96184;-85
2023/08/25 04:22:16;;;;;;;10.70;5.13;;;;;;;;;;4980471;28;92999;-84
2023/08/25 04:24:42;;;;;;;10.68;5.38;;;;;;;;;;4995141;28;93468;-84
2023/08/25 04:27:10;;;;;;;10.05;5.20;;;;;;;;;;4984741;28;96203;-86
2023/08/25 04:29:37;;;;;;;11.57;7.20;;;;;;;;;;4997031;28;92411;-86
2023/08/25 04:32:04;;;;;;;16.60;10.40;;;;;;;;;;4984808;28;96549;-86
2023/08/25 04:34:36;;;;;;;12.75;7.38;;;;;;;;;;4964573;28;94493;-81
2023/08/25 04:37:03;;;;;;;12.50;6.78;;;;;;;;;;4982970;28;92440;-82
2023/08/25 04:39:30;;;;;;;14.50;8.07;;;;;;;;;;4991680;28;94539;-82
2023/08/25 04:41:56;;;;;;;13.93;8.15;;;;;;;;;;4992090;28;92508;-84
2023/08/25 04:44:23;;;;;;;17.02;9.85;;;;;;;;;;4994773;28;94654;-83
2023/08/25 04:46:52;;;;;;;14.27;8.43;;;;;;;;;;5011660;28;93617;-84
2023/08/25 04:49:21;;;;;;;14.38;7.90;;;;;;;;;;4977347;28;91735;-86
2023/08/25 04:51:48;;;;;;;18.08;9.82;;;;;;;;;;4980480;28;93565;-84
2023/08/25 04:54:15;;;;;;;13.05;8.48;;;;;;;;;;4977393;28;94200;-84
2023/08/25 04:56:46;;;;;;;13.85;7.40;;;;;;;;;;4973200;28;96752;-83
2023/08/25 04:59:13;;;;;;;15.85;7.15;;;;;;;;;;4954598;28;96635;-83
2023/08/25 05:01:39;;;;;;;11.23;6.15;;;;;;;;;;4980102;28;94783;-83
2023/08/25 05:04:08;;;;;;;16.10;10.02;;;;;;;;;;4991965;28;93141;-84
2023/08/25 05:06:35;;;;;;;10.40;5.50;;;;;;;;;;4992064;28;92962;-84
2023/08/25 05:09:01;;;;;;;16.55;8.27;;;;;;;;;;4982507;28;92794;-83
2023/08/25 05:11:28;;;;;;;9.80;5.35;;;;;;;;;;4992620;28;93053;-83
2023/08/25 05:13:56;;;;;;;11.07;5.60;;;;;;;;;;4974025;28;93603;-83
2023/08/25 05:16:23;;;;;;;15.45;7.65;;;;;;;;;;4962360;28;93296;-83
2023/08/25 05:18:54;;;;;;;12.52;6.63;;;;;;;;;;4987315;28;95829;-83
2023/08/25 05:21:21;;;;;;;10.68;5.97;;;;;;;;;;4976581;28;98139;-83
2023/08/25 05:23:48;;;;;;;10.95;5.38;;;;;;;;;;4982641;28;92691;-85
2023/08/25 05:26:16;;;;;;;10.75;5.65;;;;;;;;;;4975317;28;95699;-85
2023/08/25 05:28:52;;;;;;;13.75;7.25;;;;;;;;;;4981811;28;92462;-85
2023/08/25 05:31:19;;;;;;;11.00;5.47;;;;;;;;;;4976028;28;95699;-85
2023/08/25 05:34:04;;;;;;;10.38;5.93;;;;;;;;;;4991087;28;92683;-86
2023/08/25 05:36:34;;;;;;;11.00;5.55;;;;;;;;;;4955680;28;92628;-86
2023/08/25 05:39:01;;;;;;;10.68;6.00;;;;;;;;;;4963202;28;95060;-85
2023/08/25 05:41:28;;;;;;;10.32;5.63;;;;;;;;;;4983140;28;96131;-85
2023/08/25 05:43:55;;;;;;;11.23;6.30;;;;;;;;;;4986121;28;92856;-85
2023/08/25 05:46:21;;;;;;;14.45;7.63;;;;;;;;;;4981417;28;95598;-85
2023/08/25 05:48:48;;;;;;;11.27;6.10;;;;;;;;;;4974094;28;92464;-85
2023/08/25 05:51:15;;;;;;;12.57;6.00;;;;;;;;;;4977961;28;95743;-85
2023/08/25 05:53:42;;;;;;;10.98;6.13;;;;;;;;;;4986143;28;95118;-85
2023/08/25 05:56:09;;;;;;;9.40;5.28;;;;;;;;;;4991837;28;92818;-85
2023/08/25 05:58:35;;;;;;;9.68;5.10;;;;;;;;;;4991750;28;94027;-85
2023/08/25 06:01:02;;;;;;;9.93;5.80;;;;;;;;;;4989558;28;93390;-85
2023/08/25 06:03:28;;;;;;;12.52;7.22;;;;;;;;;;4992582;28;91722;-83
2023/08/25 06:05:55;;;;;;;12.32;6.75;;;;;;;;;;4995821;28;92830;-83
2023/08/25 06:08:22;;;;;;;11.57;6.15;;;;;;;;;;4991803;28;92543;-83
2023/08/25 06:10:54;;;;;;;11.25;6.45;;;;;;;;;;4990115;28;95463;-85
2023/08/25 06:13:21;;;;;;;9.27;5.40;;;;;;;;;;4992200;28;93110;-84
2023/08/25 06:15:48;;;;;;;11.30;6.47;;;;;;;;;;4999262;28;92452;-83
2023/08/25 06:18:16;;;;;;;19.20;11.10;;;;;;;;;;4988587;28;92340;-85
2023/08/25 06:20:42;;;;;;;;;;;;;;;;;;4991756;28;93147;-84
2023/08/25 06:23:11;;;;;;;10.35;5.85;;;;;;;;;;4973602;28;109780;-84
2023/08/25 06:25:38;;;;;;;11.55;6.32;;;;;;;;;;4990541;28;93909;-84
2023/08/25 06:28:04;;;;;;;12.60;6.43;;;;;;;;;;4990252;28;92435;-84
2023/08/25 06:30:32;;;;;;;13.40;7.30;;;;;;;;;;4990164;28;92343;-84
2023/08/25 06:32:59;;;;;;;14.18;7.20;;;;;;;;;;5004524;28;94198;-84
2023/08/25 06:35:26;;;;;;;14.45;8.45;;;;;;;;;;4985041;28;94942;-84
2023/08/25 06:37:52;;;;;;;11.82;6.72;;;;;;;;;;5003736;28;94000;-84
2023/08/25 06:40:19;;;;;;;12.07;6.50;;;;;;;;;;5010457;28;92906;-84
2023/08/25 06:42:46;;;;;;;12.93;7.13;;;;;;;;;;5001072;28;92429;-84
2023/08/25 06:45:13;;;;;;;12.05;6.47;;;;;;;;;;4994113;28;92509;-84
2023/08/25 06:47:40;;;;;;;;;;;;;;;;;;4988893;28;93181;-84
2023/08/25 06:50:06;;;;;;;16.15;8.82;;;;;;;;;;4995204;28;116892;-84
2023/08/25 06:52:36;;;;;;;18.23;10.43;;;;;;;;;;4989280;28;92965;-84
2023/08/25 06:55:02;;;;;;;18.60;11.20;;;;;;;;;;4990436;28;92434;-84
2023/08/25 06:57:30;;;;;;;14.40;8.10;;;;;;;;;;4989916;28;93335;-84
2023/08/25 06:59:57;;;;;;;14.05;7.80;;;;;;;;;;4978050;28;95599;-85
2023/08/25 07:02:23;;;;;;;13.00;6.72;;;;;;;;;;4974230;28;93083;-86
2023/08/25 07:04:50;;;;;;;19.58;6.93;;;;;;;;;;4996274;28;92844;-86
2023/08/25 07:07:25;;;;;;;19.08;11.13;;;;;;;;;;4993429;28;93844;-85
2023/08/25 07:09:52;;;;;;;12.75;6.97;;;;;;;;;;4987847;28;92501;-84
2023/08/25 07:12:19;;;;;;;;;;;;;;;;;;4991003;28;93880;-85
2023/08/25 07:14:46;;;;;;;19.95;11.55;;;;;;;;;;4975102;28;92510;-84
2023/08/25 07:17:12;;;;;;;33.15;19.55;;;;;;;;;;4970303;28;92870;-84
2023/08/25 07:19:39;;;;;;;24.13;14.30;;;;;;;;;;4964739;28;93342;-86
2023/08/25 07:22:05;;;;;;;22.67;13.63;;;;;;;;;;4989418;28;93048;-86
2023/08/25 07:24:32;;;;;;;26.60;16.77;;;;;;;;;;4976667;28;94947;-86
2023/08/25 07:26:58;;;;;;;26.90;14.15;;;;;;;;;;4989814;28;93462;-86
2023/08/25 07:29:25;;;;;;;26.25;13.60;;;;;;;;;;4945197;28;92570;-85
2023/08/25 07:31:52;;;;;;;21.20;12.60;;;;;;;;;;4987067;28;93437;-85
2023/08/25 07:34:19;;;;;;;21.85;13.50;;;;;;;;;;4993612;28;94546;-86
2023/08/25 07:36:46;;;;;;;27.98;17.60;;;;;;;;;;4989232;28;93664;-86
2023/08/25 07:39:12;;;;;;;33.30;20.52;;;;;;;;;;4961042;28;93269;-87
2023/08/25 07:41:39;;;;;;;32.38;20.17;;;;;;;;;;4990076;28;91769;-86
2023/08/25 07:44:07;;;;;;;26.95;16.45;;;;;;;;;;4989300;28;92415;-84
2023/08/25 07:46:37;;;;;;;33.75;19.20;;;;;;;;;;4989187;28;93214;-85
2023/08/25 07:49:08;;;;;;;23.30;12.98;;;;;;;;;;4951175;28;95327;-83
2023/08/25 07:51:37;;;;;;;30.85;18.40;;;;;;;;;;4984770;28;95052;-85
2023/08/25 07:54:06;;;;;;;32.90;19.60;;;;;;;;;;4990275;28;92964;-86
2023/08/25 07:56:32;;;;;;;26.90;15.63;;;;;;;;;;4994736;28;92418;-87
2023/08/25 07:58:59;;;;;;;30.15;18.05;;;;;;;;;;4958667;28;93552;-85
2023/08/25 08:01:26;;;;;;;27.05;14.43;;;;;;;;;;4990824;28;92835;-85
2023/08/25 08:03:52;;;;;;;25.70;14.43;;;;;;;;;;4987396;28;92651;-85
2023/08/25 08:06:19;;;;;;;22.33;13.50;;;;;;;;;;4991731;28;91825;-85
2023/08/25 08:08:48;;;;;;;28.58;16.95;;;;;;;;;;4993024;28;92783;-85
2023/08/25 08:11:15;;;;;;;33.00;20.75;;;;;;;;;;4991942;28;92789;-81
2023/08/25 08:13:41;;;;;;;33.83;20.52;;;;;;;;;;4986752;28;96621;-80
2023/08/25 08:16:08;;;;;;;37.80;22.05;;;;;;;;;;4989843;28;92588;-81
2023/08/25 08:18:34;;;;;;;30.02;18.88;;;;;;;;;;4988164;28;93292;-81
2023/08/25 08:21:01;;;;;;;36.95;21.60;;;;;;;;;;4988524;28;92398;-81
2023/08/25 08:23:28;;;;;;;38.30;23.10;;;;;;;;;;4972675;28;92901;-80
2023/08/25 08:25:55;;;;;;;44.30;24.30;;;;;;;;;;4991765;28;93213;-82
2023/08/25 08:28:22;;;;;;;36.25;22.08;;;;;;;;;;4994129;28;92397;-81
2023/08/25 08:30:48;;;;;;;36.95;21.80;;;;;;;;;;5003345;28;91819;-81
2023/08/25 08:33:15;;;;;;;34.95;20.63;;;;;;;;;;4995269;28;93316;-80
2023/08/25 08:35:43;;;;;;;35.97;21.25;;;;;;;;;;4987193;28;92864;-81
2023/08/25 08:38:10;;;;;;;;;;;;;;;;;;4991111;28;95456;-80
2023/08/25 08:40:37;;;;;;;35.90;19.95;;;;;;;;;;4978238;28;92464;-79
2023/08/25 08:43:07;;;;;;;32.22;18.58;;;;;;;;;;4968541;28;93158;-79
2023/08/25 08:45:34;;;;;;;32.70;18.33;;;;;;;;;;4950398;28;92906;-80
2023/08/25 08:48:04;;;;;;;;;;;;;;;;;;4968733;28;92469;-80
2023/08/25 08:50:31;;;;;;;29.65;16.25;;;;;;;;;;4975612;28;94315;-80
2023/08/25 08:52:58;;;;;;;;;;;;;;;;;;4991726;28;92985;-80
2023/08/25 08:55:26;;;;;;;40.67;21.48;;;;;;;;;;4975782;28;112868;-79
2023/08/25 08:57:53;;;;;;;28.45;16.08;;;;;;;;;;4990509;28;93786;-80
2023/08/25 09:00:20;;;;;;;36.05;20.85;;;;;;;;;;5001091;28;93165;-80
2023/08/25 09:02:48;;;;;;;;;;;;;;;;;;4991543;28;97032;-80
2023/08/25 09:05:15;;;;;;;28.98;17.25;;;;;;;;;;4993008;28;92847;-80
2023/08/25 09:07:43;;;;;;;38.55;21.60;;;;;;;;;;4972069;28;93180;-79
2023/08/25 09:10:10;;;;;;;28.10;16.52;;;;;;;;;;4984432;28;95859;-79
2023/08/25 09:12:37;;;;;;;31.42;17.92;;;;;;;;;;4991487;28;93333;-79
2023/08/25 09:15:07;;;;;;;37.28;22.27;;;;;;;;;;4996155;28;92510;-80
2023/08/25 09:17:35;;;;;;;38.22;22.20;;;;;;;;;;4997298;28;94552;-80
2023/08/25 09:20:04;;;;;;;35.85;21.15;;;;;;;;;;5001143;28;92431;-80
2023/08/25 09:22:31;;;;;;;30.98;18.27;;;;;;;;;;4981362;28;94806;-81
2023/08/25 09:24:58;;;;;;;31.25;18.90;;;;;;;;;;4980856;28;93169;-81
2023/08/25 09:27:26;;;;;;;22.05;14.20;;;;;;;;;;4983801;28;94919;-81
2023/08/25 09:30:00;;;;;;;25.10;14.75;;;;;;;;;;4987962;28;95659;-86
2023/08/25 09:32:28;;;;;;;;;;;;;;;;;;4994886;28;93105;-81
2023/08/25 09:34:55;;;;;;;32.80;18.60;;;;;;;;;;4995674;28;113875;-81
2023/08/25 09:37:22;;;;;;;31.30;19.00;;;;;;;;;;4983118;28;96019;-81
2023/08/25 09:39:48;;;;;;;33.72;18.88;;;;;;;;;;4996042;28;93710;-84
2023/08/25 09:42:16;;;;;;;24.83;14.63;;;;;;;;;;4990161;28;93835;-82
2023/08/25 09:44:43;;;;;;;30.08;18.92;;;;;;;;;;4984299;28;92851;-83
2023/08/25 09:47:10;;;;;;;28.70;16.10;;;;;;;;;;4981477;28;92487;-85
2023/08/25 09:49:37;;;;;;;33.17;20.50;;;;;;;;;;4987485;28;92319;-83
2023/08/25 09:52:05;;;;;;;33.35;20.23;;;;;;;;;;4985288;28;95603;-84
2023/08/25 09:54:32;;;;;;;27.52;16.80;;;;;;;;;;4986552;28;92625;-83
2023/08/25 09:56:59;;;;;;;32.00;19.80;;;;;;;;;;4985443;28;93090;-84
2023/08/25 09:59:27;;;;;;;28.85;17.40;;;;;;;;;;4989759;28;93270;-84
2023/08/25 10:01:54;;;;;;;29.30;17.15;;;;;;;;;;4988998;28;92519;-83
2023/08/25 10:04:20;;;;;;;;;;;;;;;;;;4978576;28;93416;-84
2023/08/25 10:06:47;;;;;;;25.88;14.55;;;;;;;;;;4987375;28;100356;-83
2023/08/25 10:09:14;;;;;;;24.58;14.20;;;;;;;;;;4985609;28;93186;-83
2023/08/25 10:11:43;;;;;;;22.75;13.40;;;;;;;;;;4985212;28;93358;-85
2023/08/25 10:14:13;;;;;;;18.63;11.07;;;;;;;;;;4985579;28;92866;-83
2023/08/25 10:16:41;;;;;;;17.00;9.50;;;;;;;;;;4987158;28;94993;-84
2023/08/25 10:19:11;;;;;;;13.25;7.78;;;;;;;;;;4991315;28;93141;-83
2023/08/25 10:21:38;;;;;;;11.07;6.50;;;;;;;;;;4998380;28;92536;-83
2023/08/25 10:24:06;;;;;;;10.27;5.68;;;;;;;;;;5011738;28;92289;-84
2023/08/25 10:26:32;;;;;;;10.23;5.35;;;;;;;;;;5008742;28;93041;-83
2023/08/25 10:28:59;;;;;;;11.40;6.35;;;;;;;;;;4989791;28;92760;-82
2023/08/25 10:31:27;;;;;;;12.75;7.55;;;;;;;;;;4994684;28;93226;-82
2023/08/25 10:33:56;;;;;;;13.98;8.00;;;;;;;;;;4984469;28;91804;-83
2023/08/25 10:36:23;;;;;;;11.55;6.63;;;;;;;;;;4992167;28;92466;-83
2023/08/25 10:38:58;;;;;;;12.43;7.95;;;;;;;;;;4986572;28;93061;-83
2023/08/25 10:41:27;;;;;;;9.45;4.80;;;;;;;;;;4988614;28;94896;-83
2023/08/25 10:43:55;;;;;;;13.77;8.50;;;;;;;;;;4989534;28;95260;-82
2023/08/25 10:46:24;;;;;;;14.95;9.45;;;;;;;;;;4978962;28;95694;-81
2023/08/25 10:49:11;;;;;;;12.73;7.90;;;;;;;;;;4985211;28;92434;-82
2023/08/25 10:51:38;;;;;;;15.63;9.90;;;;;;;;;;4964236;28;94688;-82
2023/08/25 10:54:14;;;;;;;13.07;8.32;;;;;;;;;;4966929;28;92944;-81
2023/08/25 10:56:41;;;;;;;11.27;5.90;;;;;;;;;;4977895;28;92942;-81
2023/08/25 10:59:11;;;;;;;17.55;11.00;;;;;;;;;;4989686;28;92468;-80
2023/08/25 11:01:38;;;;;;;17.17;10.85;;;;;;;;;;4968032;28;92763;-83
2023/08/25 11:04:10;;;;;;;18.63;11.82;;;;;;;;;;4989002;28;93130;-83
2023/08/25 11:06:41;;;;;;;18.63;11.45;;;;;;;;;;4984086;28;96127;-82
2023/08/25 11:09:17;;;;;;;17.75;11.13;;;;;;;;;;4982375;28;92542;-81
2023/08/25 11:11:47;;;;;;;17.13;11.20;;;;;;;;;;4990399;28;93166;-82
2023/08/25 11:14:14;;;;;;;18.20;12.20;;;;;;;;;;4984801;28;92417;-82
2023/08/25 11:16:41;;;;;;;19.77;13.25;;;;;;;;;;4985155;28;92481;-82
2023/08/25 11:19:08;;;;;;;;;;;;;;;;;;4988765;28;94362;-84
2023/08/25 11:21:34;;;;;;;20.70;13.40;;;;;;;;;;4991165;28;100320;-83
2023/08/25 11:24:01;;;;;;;20.83;13.05;;;;;;;;;;4988870;28;92701;-82
2023/08/25 11:26:28;;;;;;;20.90;13.55;;;;;;;;;;4978357;28;93800;-84
2023/08/25 11:28:54;;;;;;;20.15;13.25;;;;;;;;;;4978998;28;92506;-83
2023/08/25 11:31:21;;;;;;;19.67;12.93;;;;;;;;;;4977830;28;95259;-83
2023/08/25 11:33:49;;;;;;;19.60;11.73;;;;;;;;;;4992001;28;93169;-85
2023/08/25 11:36:15;;;;;;;19.33;12.60;;;;;;;;;;4982759;28;92942;-85
2023/08/25 11:38:49;;;;;;;22.35;14.68;;;;;;;;;;4988662;28;93591;-81
2023/08/25 11:41:19;;;;;;;17.80;12.27;;;;;;;;;;4988311;28;92669;-82
2023/08/25 11:43:46;;;;;;;22.13;13.77;;;;;;;;;;4984552;28;93871;-83
2023/08/25 11:46:14;;;;;;;21.88;14.40;;;;;;;;;;4983495;28;93100;-83
2023/08/25 11:48:55;;;;;;;23.38;14.18;;;;;;;;;;4952024;28;92326;-83
2023/08/25 11:51:26;;;;;;;22.10;13.02;;;;;;;;;;4983369;28;94217;-81
2023/08/25 11:53:53;;;;;;;18.83;11.32;;;;;;;;;;4982226;28;93406;-83
2023/08/25 11:56:20;;;;;;;24.80;14.35;;;;;;;;;;4979775;28;95267;-85
2023/08/25 11:58:50;;;;;;;22.30;12.93;;;;;;;;;;4996479;28;92816;-80
2023/08/25 12:01:17;;;;;;;26.40;16.27;;;;;;;;;;4988138;28;92406;-82
2023/08/25 12:03:44;;;;;;;26.63;16.55;;;;;;;;;;4999425;28;92445;-81
2023/08/25 12:06:11;;;;;;;26.80;16.40;;;;;;;;;;4984510;28;92527;-84
2023/08/25 12:08:41;;;;;;;25.60;15.23;;;;;;;;;;4980378;28;92828;-84
2023/08/25 12:11:10;;;;;;;26.23;16.38;;;;;;;;;;4983315;28;93005;-89
2023/08/25 12:13:40;;;;;;;24.58;15.35;;;;;;;;;;5005677;28;91649;-84
2023/08/25 12:16:07;;;;;;;25.75;16.10;;;;;;;;;;4995557;28;92395;-85
2023/08/25 12:18:34;;;;;;;24.27;13.63;;;;;;;;;;5002426;28;92149;-81
2023/08/25 12:21:01;;;;;;;15.70;9.10;;;;;;;;;;5004174;28;94425;-83
2023/08/25 12:23:39;;;;;;;13.85;7.90;;;;;;;;;;5010597;28;95358;-83
2023/08/25 12:26:08;;;;;;;12.63;7.20;;;;;;;;;;4979427;28;96026;-83
2023/08/25 12:28:34;;;;;;;10.50;6.38;;;;;;;;;;4979365;28;92481;-80
2023/08/25 12:31:01;;;;;;;10.50;6.07;;;;;;;;;;4989730;28;92697;-81
2023/08/25 12:33:28;;;;;;;;;;;;;;;;;;4997168;28;93527;-81
2023/08/25 12:35:54;;;;;;;11.85;6.30;;;;;;;;;;4988240;28;112991;-81
2023/08/25 12:38:21;;;;;;;13.52;7.72;;;;;;;;;;4997432;28;92701;-82
2023/08/25 12:40:48;;;;;;;11.65;6.93;;;;;;;;;;4994350;28;92425;-82
2023/08/25 12:43:14;;;;;;;11.30;6.18;;;;;;;;;;4993806;28;93414;-83
2023/08/25 12:45:41;;;;;;;9.75;5.38;;;;;;;;;;4985611;28;95800;-82
2023/08/25 12:48:08;;;;;;;9.85;5.93;;;;;;;;;;4984684;28;92906;-82
2023/08/25 12:50:35;;;;;;;9.48;5.70;;;;;;;;;;4993779;28;92718;-81
2023/08/25 12:53:01;;;;;;;10.18;5.75;;;;;;;;;;4991851;28;93495;-82
2023/08/25 12:55:28;;;;;;;9.70;5.63;;;;;;;;;;4974824;28;92897;-82
2023/08/25 12:57:55;;;;;;;9.70;5.90;;;;;;;;;;4993725;28;93253;-82
2023/08/25 13:00:22;;;;;;;8.80;5.35;;;;;;;;;;4996801;28;93591;-83
2023/08/25 13:02:49;;;;;;;10.65;5.05;;;;;;;;;;4977426;28;92729;-82
2023/08/25 13:05:19;;;;;;;9.88;5.28;;;;;;;;;;4991007;28;93540;-82
2023/08/25 13:07:46;;;;;;;10.77;5.40;;;;;;;;;;4978524;28;92476;-81
2023/08/25 13:10:12;;;;;;;9.85;5.30;;;;;;;;;;4976131;28;95514;-81
2023/08/25 13:12:39;;;;;;;9.82;5.05;;;;;;;;;;5000186;28;92976;-82
2023/08/25 13:15:09;;;;;;;8.63;4.97;;;;;;;;;;4964508;28;92530;-82
2023/08/25 13:17:36;;;;;;;8.73;4.57;;;;;;;;;;4999656;28;92902;-81
2023/08/25 13:20:03;;;;;;;8.98;4.97;;;;;;;;;;4976133;28;93192;-82
2023/08/25 13:22:30;;;;;;;8.95;5.13;;;;;;;;;;4986872;28;92931;-81
2023/08/25 13:24:56;;;;;;;8.57;4.88;;;;;;;;;;4995255;28;93085;-82
2023/08/25 13:27:23;;;;;;;9.23;5.20;;;;;;;;;;4993871;28;92111;-83
2023/08/25 13:29:50;;;;;;;8.70;4.93;;;;;;;;;;4974640;28;95355;-82
2023/08/25 13:32:19;;;;;;;10.20;5.70;;;;;;;;;;4990183;28;93119;-83
2023/08/25 13:34:46;;;;;;;8.85;5.47;;;;;;;;;;4953519;28;94824;-83
2023/08/25 13:37:12;;;;;;;9.35;5.47;;;;;;;;;;4971671;28;97928;-82
2023/08/25 13:39:40;;;;;;;10.00;5.50;;;;;;;;;;4990618;28;93225;-82
2023/08/25 13:42:07;;;;;;;9.95;5.78;;;;;;;;;;4992388;28;92828;-83
2023/08/25 13:44:38;;;;;;;10.52;5.68;;;;;;;;;;4993915;28;93267;-82
2023/08/25 13:47:07;;;;;;;10.07;5.82;;;;;;;;;;4991819;28;92423;-82
2023/08/25 13:49:34;;;;;;;10.23;5.82;;;;;;;;;;4990477;28;92945;-83
2023/08/25 13:52:01;;;;;;;;;;;;;;;;;;4995979;28;93256;-82
2023/08/25 13:54:27;;;;;;;12.85;6.97;;;;;;;;;;4991122;28;99803;-82
2023/08/25 13:56:54;;;;;;;13.15;7.25;;;;;;;;;;4996131;28;92919;-82
2023/08/25 13:59:23;;;;;;;16.20;8.45;;;;;;;;;;4988309;28;95592;-82
2023/08/25 14:01:50;;;;;;;14.80;8.02;;;;;;;;;;4996569;28;92787;-82
2023/08/25 14:04:17;;;;;;;17.65;9.68;;;;;;;;;;4971103;28;95626;-82
2023/08/25 14:06:43;;;;;;;16.65;9.20;;;;;;;;;;5000356;28;93057;-82
2023/08/25 14:09:10;;;;;;;16.48;8.93;;;;;;;;;;4989678;28;93015;-83
2023/08/25 14:11:36;;;;;;;14.40;8.55;;;;;;;;;;4979913;28;93656;-82
2023/08/25 14:14:03;;;;;;;15.50;9.00;;;;;;;;;;4989102;28;92471;-82
2023/08/25 14:16:30;;;;;;;14.65;8.88;;;;;;;;;;4991465;28;93616;-82
2023/08/25 14:18:56;;;;;;;15.82;9.02;;;;;;;;;;4989646;28;92972;-83
2023/08/25 14:21:23;;;;;;;17.25;9.30;;;;;;;;;;4989136;28;92520;-82
2023/08/25 14:23:50;;;;;;;17.88;9.27;;;;;;;;;;4988640;28;95645;-82
2023/08/25 14:26:16;;;;;;;15.80;8.73;;;;;;;;;;5000426;28;93052;-82
2023/08/25 14:28:43;;;;;;;17.83;9.98;;;;;;;;;;4992790;28;92834;-83
2023/08/25 14:31:09;;;;;;;14.60;9.20;;;;;;;;;;4992490;28;93364;-83
2023/08/25 14:33:36;;;;;;;18.88;11.05;;;;;;;;;;4992724;28;92476;-82